sensor_id;sensor_type;location;lat;lon;timestamp;P1;durP1;ratioP1;P2;durP2;ratioP2
70073;SDS011;57445;51.058;3.698;2022-09-30T00:01:50;15.05;;;12.52;;
70073;SDS011;57445;51.058;3.698;2022-09-30T00:04:23;15.40;;;12.73;;
70073;SDS011;57445;51.058;3.698;2022-09-30T00:06:57;15.02;;;12.00;;
70073;SDS011;57445;51.058;3.698;2022-09-30T00:09:24;16.00;;;13.02;;
70073;SDS011;57445;51.058;3.698;2022-09-30T00:11:57;17.63;;;13.40;;
70073;SDS011;57445;51.058;3.698;2022-09-30T00:14:24;16.55;;;13.10;;
70073;SDS011;57445;51.058;3.698;2022-09-30T00:16:52;15.10;;;13.05;;
70073;SDS011;57445;51.058;3.698;2022-09-30T00:19:24;15.63;;;12.57;;
70073;SDS011;57445;51.058;3.698;2022-09-30T00:21:58;16.92;;;12.90;;
70073;SDS011;57445;51.058;3.698;2022-09-30T00:24:30;16.90;;;13.68;;
70073;SDS011;57445;51.058;3.698;2022-09-30T00:26:57;17.60;;;13.38;;
70073;SDS011;57445;51.058;3.698;2022-09-30T00:29:25;17.05;;;14.07;;
70073;SDS011;57445;51.058;3.698;2022-09-30T00:31:57;16.65;;;14.65;;
70073;SDS011;57445;51.058;3.698;2022-09-30T00:34:29;16.45;;;13.63;;
70073;SDS011;57445;51.058;3.698;2022-09-30T00:36:58;15.93;;;14.23;;
70073;SDS011;57445;51.058;3.698;2022-09-30T00:39:29;18.30;;;15.13;;
70073;SDS011;57445;51.058;3.698;2022-09-30T00:41:58;19.73;;;15.18;;
70073;SDS011;57445;51.058;3.698;2022-09-30T00:44:45;19.10;;;15.50;;
70073;SDS011;57445;51.058;3.698;2022-09-30T00:47:33;16.80;;;15.00;;
70073;SDS011;57445;51.058;3.698;2022-09-30T00:50:19;19.45;;;17.13;;
70073;SDS011;57445;51.058;3.698;2022-09-30T00:53:08;19.85;;;16.02;;
70073;SDS011;57445;51.058;3.698;2022-09-30T00:55:45;22.17;;;16.83;;
70073;SDS011;57445;51.058;3.698;2022-09-30T00:58:19;19.77;;;17.08;;
70073;SDS011;57445;51.058;3.698;2022-09-30T01:00:50;18.50;;;16.50;;
70073;SDS011;57445;51.058;3.698;2022-09-30T01:03:18;20.77;;;17.10;;
70073;SDS011;57445;51.058;3.698;2022-09-30T01:05:49;22.65;;;18.98;;
70073;SDS011;57445;51.058;3.698;2022-09-30T01:08:20;21.98;;;17.90;;
70073;SDS011;57445;51.058;3.698;2022-09-30T01:10:54;22.98;;;18.55;;
70073;SDS011;57445;51.058;3.698;2022-09-30T01:13:21;22.35;;;18.73;;
70073;SDS011;57445;51.058;3.698;2022-09-30T01:15:55;23.15;;;19.58;;
70073;SDS011;57445;51.058;3.698;2022-09-30T01:18:36;21.00;;;18.63;;
70073;SDS011;57445;51.058;3.698;2022-09-30T01:21:24;23.17;;;19.02;;
70073;SDS011;57445;51.058;3.698;2022-09-30T01:24:35;24.45;;;18.40;;
70073;SDS011;57445;51.058;3.698;2022-09-30T01:27:35;22.55;;;17.80;;
70073;SDS011;57445;51.058;3.698;2022-09-30T01:30:18;23.00;;;18.05;;
70073;SDS011;57445;51.058;3.698;2022-09-30T01:33:01;22.92;;;18.35;;
70073;SDS011;57445;51.058;3.698;2022-09-30T01:35:40;20.70;;;17.85;;
70073;SDS011;57445;51.058;3.698;2022-09-30T01:38:22;23.25;;;18.02;;
70073;SDS011;57445;51.058;3.698;2022-09-30T01:41:00;21.33;;;18.88;;
70073;SDS011;57445;51.058;3.698;2022-09-30T01:43:37;22.10;;;18.38;;
70073;SDS011;57445;51.058;3.698;2022-09-30T01:46:20;19.80;;;17.70;;
70073;SDS011;57445;51.058;3.698;2022-09-30T01:48:56;21.90;;;17.20;;
70073;SDS011;57445;51.058;3.698;2022-09-30T01:51:29;23.75;;;18.05;;
70073;SDS011;57445;51.058;3.698;2022-09-30T01:54:04;20.30;;;17.63;;
70073;SDS011;57445;51.058;3.698;2022-09-30T01:56:37;21.70;;;16.67;;
70073;SDS011;57445;51.058;3.698;2022-09-30T01:59:09;21.30;;;17.95;;
70073;SDS011;57445;51.058;3.698;2022-09-30T02:01:42;24.13;;;18.30;;
70073;SDS011;57445;51.058;3.698;2022-09-30T02:04:22;22.90;;;17.52;;
70073;SDS011;57445;51.058;3.698;2022-09-30T02:06:54;22.38;;;18.23;;
70073;SDS011;57445;51.058;3.698;2022-09-30T02:09:26;21.92;;;17.83;;
70073;SDS011;57445;51.058;3.698;2022-09-30T02:12:05;22.73;;;19.08;;
70073;SDS011;57445;51.058;3.698;2022-09-30T02:14:38;21.52;;;18.65;;
70073;SDS011;57445;51.058;3.698;2022-09-30T02:17:11;22.90;;;18.80;;
70073;SDS011;57445;51.058;3.698;2022-09-30T02:19:50;22.50;;;17.92;;
70073;SDS011;57445;51.058;3.698;2022-09-30T02:22:24;21.63;;;18.05;;
70073;SDS011;57445;51.058;3.698;2022-09-30T02:25:01;23.08;;;18.00;;
70073;SDS011;57445;51.058;3.698;2022-09-30T02:27:32;22.95;;;17.90;;
70073;SDS011;57445;51.058;3.698;2022-09-30T02:30:07;22.27;;;18.42;;
70073;SDS011;57445;51.058;3.698;2022-09-30T02:32:37;20.40;;;17.63;;
70073;SDS011;57445;51.058;3.698;2022-09-30T02:35:10;21.52;;;18.45;;
70073;SDS011;57445;51.058;3.698;2022-09-30T02:37:44;23.85;;;18.45;;
70073;SDS011;57445;51.058;3.698;2022-09-30T02:40:15;21.35;;;18.55;;
70073;SDS011;57445;51.058;3.698;2022-09-30T02:42:47;23.83;;;19.00;;
70073;SDS011;57445;51.058;3.698;2022-09-30T02:45:20;24.15;;;18.73;;
70073;SDS011;57445;51.058;3.698;2022-09-30T02:47:58;21.30;;;18.08;;
70073;SDS011;57445;51.058;3.698;2022-09-30T02:50:42;21.10;;;17.63;;
70073;SDS011;57445;51.058;3.698;2022-09-30T02:53:20;25.25;;;18.50;;
70073;SDS011;57445;51.058;3.698;2022-09-30T02:56:03;23.02;;;19.98;;
70073;SDS011;57445;51.058;3.698;2022-09-30T02:58:45;24.83;;;18.70;;
70073;SDS011;57445;51.058;3.698;2022-09-30T03:01:14;23.05;;;19.10;;
70073;SDS011;57445;51.058;3.698;2022-09-30T03:03:44;24.75;;;19.20;;
70073;SDS011;57445;51.058;3.698;2022-09-30T03:06:16;22.52;;;18.77;;
70073;SDS011;57445;51.058;3.698;2022-09-30T03:08:50;24.67;;;18.73;;
70073;SDS011;57445;51.058;3.698;2022-09-30T03:11:20;24.13;;;18.95;;
70073;SDS011;57445;51.058;3.698;2022-09-30T03:14:04;20.00;;;17.17;;
70073;SDS011;57445;51.058;3.698;2022-09-30T03:16:49;19.75;;;16.20;;
70073;SDS011;57445;51.058;3.698;2022-09-30T03:19:51;20.95;;;15.85;;
70073;SDS011;57445;51.058;3.698;2022-09-30T03:22:39;18.40;;;15.88;;
70073;SDS011;57445;51.058;3.698;2022-09-30T03:25:27;19.20;;;16.10;;
70073;SDS011;57445;51.058;3.698;2022-09-30T03:28:03;21.38;;;17.50;;
70073;SDS011;57445;51.058;3.698;2022-09-30T03:30:39;20.25;;;17.35;;
70073;SDS011;57445;51.058;3.698;2022-09-30T03:33:20;21.48;;;17.90;;
70073;SDS011;57445;51.058;3.698;2022-09-30T03:35:53;23.33;;;17.50;;
70073;SDS011;57445;51.058;3.698;2022-09-30T03:38:31;24.30;;;18.10;;
70073;SDS011;57445;51.058;3.698;2022-09-30T03:41:11;19.63;;;16.60;;
70073;SDS011;57445;51.058;3.698;2022-09-30T03:43:53;20.50;;;15.75;;
70073;SDS011;57445;51.058;3.698;2022-09-30T03:46:32;21.13;;;16.42;;
70073;SDS011;57445;51.058;3.698;2022-09-30T03:49:03;18.63;;;15.27;;
70073;SDS011;57445;51.058;3.698;2022-09-30T03:51:34;20.30;;;16.65;;
70073;SDS011;57445;51.058;3.698;2022-09-30T03:54:06;20.23;;;16.77;;
70073;SDS011;57445;51.058;3.698;2022-09-30T03:56:40;19.27;;;16.38;;
70073;SDS011;57445;51.058;3.698;2022-09-30T03:59:09;21.30;;;17.17;;
70073;SDS011;57445;51.058;3.698;2022-09-30T04:01:38;20.85;;;17.48;;
70073;SDS011;57445;51.058;3.698;2022-09-30T04:04:05;20.05;;;16.23;;
70073;SDS011;57445;51.058;3.698;2022-09-30T04:06:38;20.25;;;16.75;;
70073;SDS011;57445;51.058;3.698;2022-09-30T04:09:07;21.23;;;16.42;;
70073;SDS011;57445;51.058;3.698;2022-09-30T04:11:39;18.85;;;15.73;;
70073;SDS011;57445;51.058;3.698;2022-09-30T04:14:07;22.63;;;17.30;;
70073;SDS011;57445;51.058;3.698;2022-09-30T04:16:35;19.73;;;17.30;;
70073;SDS011;57445;51.058;3.698;2022-09-30T04:19:03;22.52;;;16.08;;
70073;SDS011;57445;51.058;3.698;2022-09-30T04:21:35;18.90;;;15.23;;
70073;SDS011;57445;51.058;3.698;2022-09-30T04:24:03;20.05;;;16.13;;
70073;SDS011;57445;51.058;3.698;2022-09-30T04:26:32;20.05;;;16.08;;
70073;SDS011;57445;51.058;3.698;2022-09-30T04:29:00;20.10;;;16.75;;
70073;SDS011;57445;51.058;3.698;2022-09-30T04:31:27;24.40;;;16.27;;
70073;SDS011;57445;51.058;3.698;2022-09-30T04:34:00;21.55;;;16.85;;
70073;SDS011;57445;51.058;3.698;2022-09-30T04:36:27;22.00;;;16.83;;
70073;SDS011;57445;51.058;3.698;2022-09-30T04:38:55;20.45;;;17.63;;
70073;SDS011;57445;51.058;3.698;2022-09-30T04:41:23;21.20;;;16.38;;
70073;SDS011;57445;51.058;3.698;2022-09-30T04:43:57;19.55;;;15.77;;
70073;SDS011;57445;51.058;3.698;2022-09-30T04:46:29;19.42;;;16.42;;
70073;SDS011;57445;51.058;3.698;2022-09-30T04:48:57;22.58;;;18.05;;
70073;SDS011;57445;51.058;3.698;2022-09-30T04:51:30;22.77;;;16.60;;
70073;SDS011;57445;51.058;3.698;2022-09-30T04:54:02;25.17;;;19.88;;
70073;SDS011;57445;51.058;3.698;2022-09-30T04:56:30;21.10;;;16.92;;
70073;SDS011;57445;51.058;3.698;2022-09-30T04:58:59;25.40;;;17.88;;
70073;SDS011;57445;51.058;3.698;2022-09-30T05:01:31;21.15;;;16.58;;
70073;SDS011;57445;51.058;3.698;2022-09-30T05:04:05;24.63;;;16.83;;
70073;SDS011;57445;51.058;3.698;2022-09-30T05:06:37;21.75;;;18.75;;
70073;SDS011;57445;51.058;3.698;2022-09-30T05:09:05;21.95;;;17.38;;
70073;SDS011;57445;51.058;3.698;2022-09-30T05:11:33;24.50;;;18.75;;
70073;SDS011;57445;51.058;3.698;2022-09-30T05:14:06;20.25;;;15.07;;
70073;SDS011;57445;51.058;3.698;2022-09-30T05:16:34;19.42;;;15.57;;
70073;SDS011;57445;51.058;3.698;2022-09-30T05:19:07;18.27;;;14.82;;
70073;SDS011;57445;51.058;3.698;2022-09-30T05:21:39;17.48;;;14.50;;
70073;SDS011;57445;51.058;3.698;2022-09-30T05:24:08;19.23;;;14.90;;
70073;SDS011;57445;51.058;3.698;2022-09-30T05:26:40;26.80;;;20.10;;
70073;SDS011;57445;51.058;3.698;2022-09-30T05:29:09;18.70;;;15.90;;
70073;SDS011;57445;51.058;3.698;2022-09-30T05:31:37;20.67;;;16.20;;
70073;SDS011;57445;51.058;3.698;2022-09-30T05:34:07;20.95;;;15.50;;
70073;SDS011;57445;51.058;3.698;2022-09-30T05:36:40;20.23;;;15.40;;
70073;SDS011;57445;51.058;3.698;2022-09-30T05:39:08;21.33;;;15.45;;
70073;SDS011;57445;51.058;3.698;2022-09-30T05:41:41;21.63;;;16.17;;
70073;SDS011;57445;51.058;3.698;2022-09-30T05:44:14;24.38;;;14.82;;
70073;SDS011;57445;51.058;3.698;2022-09-30T05:46:46;18.63;;;14.75;;
70073;SDS011;57445;51.058;3.698;2022-09-30T05:49:14;20.90;;;15.25;;
70073;SDS011;57445;51.058;3.698;2022-09-30T05:51:46;19.23;;;15.68;;
70073;SDS011;57445;51.058;3.698;2022-09-30T05:54:19;69.55;;;20.85;;
70073;SDS011;57445;51.058;3.698;2022-09-30T05:56:46;72.97;;;21.83;;
70073;SDS011;57445;51.058;3.698;2022-09-30T05:59:20;58.03;;;18.45;;
70073;SDS011;57445;51.058;3.698;2022-09-30T06:01:47;32.30;;;18.00;;
70073;SDS011;57445;51.058;3.698;2022-09-30T06:04:15;29.25;;;17.88;;
70073;SDS011;57445;51.058;3.698;2022-09-30T06:06:47;22.63;;;16.45;;
70073;SDS011;57445;51.058;3.698;2022-09-30T06:09:16;26.38;;;17.83;;
70073;SDS011;57445;51.058;3.698;2022-09-30T06:11:45;27.90;;;18.33;;
70073;SDS011;57445;51.058;3.698;2022-09-30T06:14:12;22.38;;;16.27;;
70073;SDS011;57445;51.058;3.698;2022-09-30T06:16:43;26.33;;;16.73;;
70073;SDS011;57445;51.058;3.698;2022-09-30T06:19:15;28.30;;;17.38;;
70073;SDS011;57445;51.058;3.698;2022-09-30T06:21:43;25.55;;;16.05;;
70073;SDS011;57445;51.058;3.698;2022-09-30T06:24:11;27.52;;;17.25;;
70073;SDS011;57445;51.058;3.698;2022-09-30T06:26:39;24.60;;;17.52;;
70073;SDS011;57445;51.058;3.698;2022-09-30T06:29:08;36.40;;;17.73;;
70073;SDS011;57445;51.058;3.698;2022-09-30T06:31:37;23.55;;;17.48;;
70073;SDS011;57445;51.058;3.698;2022-09-30T06:34:07;27.58;;;16.65;;
70073;SDS011;57445;51.058;3.698;2022-09-30T06:36:35;27.23;;;18.73;;
70073;SDS011;57445;51.058;3.698;2022-09-30T06:39:07;22.35;;;17.70;;
70073;SDS011;57445;51.058;3.698;2022-09-30T06:41:35;20.05;;;16.13;;
70073;SDS011;57445;51.058;3.698;2022-09-30T06:44:09;25.30;;;16.83;;
70073;SDS011;57445;51.058;3.698;2022-09-30T06:46:37;26.70;;;17.00;;
70073;SDS011;57445;51.058;3.698;2022-09-30T06:49:06;23.48;;;16.13;;
70073;SDS011;57445;51.058;3.698;2022-09-30T06:51:34;20.27;;;15.90;;
70073;SDS011;57445;51.058;3.698;2022-09-30T06:54:02;18.85;;;15.57;;
70073;SDS011;57445;51.058;3.698;2022-09-30T06:56:30;21.60;;;16.35;;
70073;SDS011;57445;51.058;3.698;2022-09-30T06:58:57;19.80;;;15.15;;
70073;SDS011;57445;51.058;3.698;2022-09-30T07:01:31;20.75;;;15.63;;
70073;SDS011;57445;51.058;3.698;2022-09-30T07:03:59;29.90;;;15.75;;
70073;SDS011;57445;51.058;3.698;2022-09-30T07:06:34;19.27;;;15.20;;
70073;SDS011;57445;51.058;3.698;2022-09-30T07:09:03;18.00;;;14.50;;
70073;SDS011;57445;51.058;3.698;2022-09-30T07:11:31;21.73;;;14.43;;
70073;SDS011;57445;51.058;3.698;2022-09-30T07:13:58;19.48;;;14.40;;
70073;SDS011;57445;51.058;3.698;2022-09-30T07:16:27;15.30;;;13.70;;
70073;SDS011;57445;51.058;3.698;2022-09-30T07:18:56;17.95;;;13.85;;
70073;SDS011;57445;51.058;3.698;2022-09-30T07:21:24;16.13;;;13.40;;
70073;SDS011;57445;51.058;3.698;2022-09-30T07:23:54;16.33;;;12.98;;
70073;SDS011;57445;51.058;3.698;2022-09-30T07:26:23;16.30;;;13.27;;
70073;SDS011;57445;51.058;3.698;2022-09-30T07:28:53;15.57;;;12.43;;
70073;SDS011;57445;51.058;3.698;2022-09-30T07:31:22;15.77;;;12.25;;
70073;SDS011;57445;51.058;3.698;2022-09-30T07:33:51;18.48;;;13.35;;
70073;SDS011;57445;51.058;3.698;2022-09-30T07:36:25;17.17;;;12.85;;
70073;SDS011;57445;51.058;3.698;2022-09-30T07:38:56;17.50;;;12.10;;
70073;SDS011;57445;51.058;3.698;2022-09-30T07:41:25;17.63;;;12.23;;
70073;SDS011;57445;51.058;3.698;2022-09-30T07:43:54;16.85;;;12.18;;
70073;SDS011;57445;51.058;3.698;2022-09-30T07:46:25;17.25;;;10.73;;
70073;SDS011;57445;51.058;3.698;2022-09-30T07:48:57;14.13;;;11.00;;
70073;SDS011;57445;51.058;3.698;2022-09-30T07:51:28;36.67;;;11.68;;
70073;SDS011;57445;51.058;3.698;2022-09-30T07:54:00;22.00;;;11.25;;
70073;SDS011;57445;51.058;3.698;2022-09-30T07:56:35;20.53;;;12.87;;
70073;SDS011;57445;51.058;3.698;2022-09-30T07:59:05;36.53;;;16.25;;
70073;SDS011;57445;51.058;3.698;2022-09-30T08:01:39;20.50;;;13.77;;
70073;SDS011;57445;51.058;3.698;2022-09-30T08:04:12;14.40;;;10.80;;
70073;SDS011;57445;51.058;3.698;2022-09-30T08:06:41;17.27;;;10.55;;
70073;SDS011;57445;51.058;3.698;2022-09-30T08:09:18;14.50;;;10.13;;
70073;SDS011;57445;51.058;3.698;2022-09-30T08:11:48;21.88;;;11.77;;
70073;SDS011;57445;51.058;3.698;2022-09-30T08:14:17;15.13;;;10.77;;
70073;SDS011;57445;51.058;3.698;2022-09-30T08:16:46;12.57;;;9.32;;
70073;SDS011;57445;51.058;3.698;2022-09-30T08:19:20;13.45;;;10.23;;
70073;SDS011;57445;51.058;3.698;2022-09-30T08:21:52;13.55;;;10.05;;
70073;SDS011;57445;51.058;3.698;2022-09-30T08:24:22;14.73;;;10.00;;
70073;SDS011;57445;51.058;3.698;2022-09-30T08:26:51;13.45;;;9.60;;
70073;SDS011;57445;51.058;3.698;2022-09-30T08:29:19;12.75;;;9.43;;
70073;SDS011;57445;51.058;3.698;2022-09-30T08:31:47;14.57;;;9.68;;
70073;SDS011;57445;51.058;3.698;2022-09-30T08:34:16;13.65;;;9.77;;
70073;SDS011;57445;51.058;3.698;2022-09-30T08:36:44;19.48;;;9.85;;
70073;SDS011;57445;51.058;3.698;2022-09-30T08:39:12;78.65;;;13.27;;
70073;SDS011;57445;51.058;3.698;2022-09-30T08:41:53;16.42;;;9.10;;
70073;SDS011;57445;51.058;3.698;2022-09-30T08:44:39;10.30;;;8.15;;
70073;SDS011;57445;51.058;3.698;2022-09-30T08:47:28;13.75;;;8.50;;
70073;SDS011;57445;51.058;3.698;2022-09-30T08:50:10;13.25;;;8.98;;
70073;SDS011;57445;51.058;3.698;2022-09-30T08:52:44;13.63;;;9.40;;
70073;SDS011;57445;51.058;3.698;2022-09-30T08:55:15;13.07;;;8.48;;
70073;SDS011;57445;51.058;3.698;2022-09-30T08:57:54;12.98;;;8.23;;
70073;SDS011;57445;51.058;3.698;2022-09-30T09:00:30;16.23;;;8.95;;
70073;SDS011;57445;51.058;3.698;2022-09-30T09:03:00;13.00;;;8.40;;
70073;SDS011;57445;51.058;3.698;2022-09-30T09:05:32;12.50;;;8.93;;
70073;SDS011;57445;51.058;3.698;2022-09-30T09:08:13;15.52;;;9.35;;
70073;SDS011;57445;51.058;3.698;2022-09-30T09:10:48;12.93;;;8.80;;
70073;SDS011;57445;51.058;3.698;2022-09-30T09:13:28;15.13;;;8.35;;
70073;SDS011;57445;51.058;3.698;2022-09-30T09:16:08;15.63;;;8.93;;
70073;SDS011;57445;51.058;3.698;2022-09-30T09:18:44;36.55;;;10.40;;
70073;SDS011;57445;51.058;3.698;2022-09-30T09:21:22;18.08;;;8.63;;
70073;SDS011;57445;51.058;3.698;2022-09-30T09:23:56;13.52;;;8.65;;
70073;SDS011;57445;51.058;3.698;2022-09-30T09:26:28;17.63;;;10.65;;
70073;SDS011;57445;51.058;3.698;2022-09-30T09:29:11;10.60;;;8.15;;
70073;SDS011;57445;51.058;3.698;2022-09-30T09:31:52;16.92;;;8.38;;
70073;SDS011;57445;51.058;3.698;2022-09-30T09:34:21;16.50;;;9.10;;
70073;SDS011;57445;51.058;3.698;2022-09-30T09:36:55;14.05;;;7.45;;
70073;SDS011;57445;51.058;3.698;2022-09-30T09:39:44;10.70;;;7.00;;
70073;SDS011;57445;51.058;3.698;2022-09-30T09:42:32;9.88;;;6.25;;
70073;SDS011;57445;51.058;3.698;2022-09-30T09:45:17;8.65;;;6.40;;
70073;SDS011;57445;51.058;3.698;2022-09-30T09:47:53;10.47;;;6.93;;
70073;SDS011;57445;51.058;3.698;2022-09-30T09:50:24;12.63;;;6.38;;
70073;SDS011;57445;51.058;3.698;2022-09-30T09:53:04;9.73;;;5.57;;
70073;SDS011;57445;51.058;3.698;2022-09-30T09:55:47;7.43;;;5.35;;
70073;SDS011;57445;51.058;3.698;2022-09-30T09:58:15;9.80;;;5.53;;
70073;SDS011;57445;51.058;3.698;2022-09-30T10:00:44;11.27;;;5.63;;
70073;SDS011;57445;51.058;3.698;2022-09-30T10:03:30;11.57;;;6.30;;
70073;SDS011;57445;51.058;3.698;2022-09-30T10:06:04;7.72;;;5.70;;
70073;SDS011;57445;51.058;3.698;2022-09-30T10:08:34;7.47;;;5.18;;
70073;SDS011;57445;51.058;3.698;2022-09-30T10:11:05;8.90;;;5.55;;
70073;SDS011;57445;51.058;3.698;2022-09-30T10:13:40;15.32;;;7.07;;
70073;SDS011;57445;51.058;3.698;2022-09-30T10:16:24;9.85;;;5.80;;
70073;SDS011;57445;51.058;3.698;2022-09-30T10:18:59;10.52;;;6.05;;
70073;SDS011;57445;51.058;3.698;2022-09-30T10:21:28;8.88;;;5.70;;
70073;SDS011;57445;51.058;3.698;2022-09-30T10:26:59;8.52;;;5.47;;
70073;SDS011;57445;51.058;3.698;2022-09-30T10:29:28;9.52;;;6.00;;
70073;SDS011;57445;51.058;3.698;2022-09-30T10:31:59;11.50;;;5.90;;
70073;SDS011;57445;51.058;3.698;2022-09-30T10:34:29;9.52;;;5.80;;
70073;SDS011;57445;51.058;3.698;2022-09-30T10:37:01;8.25;;;5.85;;
70073;SDS011;57445;51.058;3.698;2022-09-30T10:39:36;9.73;;;6.45;;
70073;SDS011;57445;51.058;3.698;2022-09-30T10:42:05;12.80;;;5.85;;
70073;SDS011;57445;51.058;3.698;2022-09-30T10:44:40;9.85;;;6.53;;
70073;SDS011;57445;51.058;3.698;2022-09-30T10:47:13;17.05;;;6.38;;
70073;SDS011;57445;51.058;3.698;2022-09-30T10:49:44;14.45;;;6.20;;
70073;SDS011;57445;51.058;3.698;2022-09-30T10:52:15;8.05;;;6.10;;
70073;SDS011;57445;51.058;3.698;2022-09-30T10:54:47;11.93;;;5.95;;
70073;SDS011;57445;51.058;3.698;2022-09-30T10:57:18;11.75;;;5.78;;
70073;SDS011;57445;51.058;3.698;2022-09-30T10:59:54;9.30;;;6.35;;
70073;SDS011;57445;51.058;3.698;2022-09-30T11:02:28;7.15;;;5.53;;
70073;SDS011;57445;51.058;3.698;2022-09-30T11:05:05;12.35;;;6.30;;
70073;SDS011;57445;51.058;3.698;2022-09-30T11:07:44;8.98;;;5.78;;
70073;SDS011;57445;51.058;3.698;2022-09-30T11:10:23;8.70;;;5.05;;
70073;SDS011;57445;51.058;3.698;2022-09-30T11:13:00;8.60;;;4.72;;
70073;SDS011;57445;51.058;3.698;2022-09-30T11:15:34;7.88;;;5.32;;
70073;SDS011;57445;51.058;3.698;2022-09-30T11:18:13;13.18;;;5.60;;
70073;SDS011;57445;51.058;3.698;2022-09-30T11:20:55;8.80;;;5.13;;
70073;SDS011;57445;51.058;3.698;2022-09-30T11:23:37;7.40;;;4.95;;
70073;SDS011;57445;51.058;3.698;2022-09-30T11:26:15;9.00;;;4.30;;
70073;SDS011;57445;51.058;3.698;2022-09-30T11:28:56;9.57;;;4.90;;
70073;SDS011;57445;51.058;3.698;2022-09-30T11:31:36;7.28;;;4.25;;
70073;SDS011;57445;51.058;3.698;2022-09-30T11:34:22;12.07;;;4.05;;
70073;SDS011;57445;51.058;3.698;2022-09-30T11:39:41;7.78;;;4.57;;
70073;SDS011;57445;51.058;3.698;2022-09-30T11:42:26;6.32;;;3.53;;
70073;SDS011;57445;51.058;3.698;2022-09-30T11:45:06;6.90;;;3.40;;
70073;SDS011;57445;51.058;3.698;2022-09-30T11:47:48;7.60;;;3.38;;
70073;SDS011;57445;51.058;3.698;2022-09-30T11:50:34;4.90;;;3.10;;
70073;SDS011;57445;51.058;3.698;2022-09-30T11:53:20;7.20;;;3.60;;
70073;SDS011;57445;51.058;3.698;2022-09-30T11:56:03;5.28;;;2.88;;
70073;SDS011;57445;51.058;3.698;2022-09-30T11:58:39;6.90;;;2.95;;
70073;SDS011;57445;51.058;3.698;2022-09-30T12:01:14;6.05;;;3.80;;
70073;SDS011;57445;51.058;3.698;2022-09-30T12:03:56;12.93;;;3.15;;
70073;SDS011;57445;51.058;3.698;2022-09-30T12:06:32;14.32;;;4.35;;
70073;SDS011;57445;51.058;3.698;2022-09-30T12:09:12;15.48;;;4.20;;
70073;SDS011;57445;51.058;3.698;2022-09-30T12:11:48;8.35;;;3.28;;
70073;SDS011;57445;51.058;3.698;2022-09-30T12:14:22;6.90;;;2.88;;
70073;SDS011;57445;51.058;3.698;2022-09-30T12:16:55;7.82;;;3.47;;
70073;SDS011;57445;51.058;3.698;2022-09-30T12:19:28;6.60;;;3.30;;
70073;SDS011;57445;51.058;3.698;2022-09-30T12:22:08;5.75;;;3.00;;
70073;SDS011;57445;51.058;3.698;2022-09-30T12:24:39;5.38;;;3.00;;
70073;SDS011;57445;51.058;3.698;2022-09-30T12:27:11;6.90;;;3.03;;
70073;SDS011;57445;51.058;3.698;2022-09-30T12:29:46;7.38;;;3.25;;
70073;SDS011;57445;51.058;3.698;2022-09-30T12:35:58;7.82;;;3.55;;
70073;SDS011;57445;51.058;3.698;2022-09-30T12:38:49;7.20;;;3.40;;
70073;SDS011;57445;51.058;3.698;2022-09-30T12:41:56;16.83;;;4.65;;
70073;SDS011;57445;51.058;3.698;2022-09-30T12:44:43;498.13;;;48.22;;
70073;SDS011;57445;51.058;3.698;2022-09-30T12:47:28;340.83;;;27.42;;
70073;SDS011;57445;51.058;3.698;2022-09-30T12:50:02;20.20;;;3.97;;
70073;SDS011;57445;51.058;3.698;2022-09-30T12:52:34;15.70;;;3.90;;
70073;SDS011;57445;51.058;3.698;2022-09-30T12:55:06;24.65;;;4.75;;
70073;SDS011;57445;51.058;3.698;2022-09-30T12:57:44;5.22;;;3.33;;
70073;SDS011;57445;51.058;3.698;2022-09-30T13:00:19;6.82;;;3.50;;
70073;SDS011;57445;51.058;3.698;2022-09-30T13:02:52;12.32;;;3.67;;
70073;SDS011;57445;51.058;3.698;2022-09-30T13:08:41;6.05;;;2.97;;
70073;SDS011;57445;51.058;3.698;2022-09-30T13:11:31;5.05;;;2.70;;
70073;SDS011;57445;51.058;3.698;2022-09-30T13:17:01;6.10;;;2.85;;
70073;SDS011;57445;51.058;3.698;2022-09-30T13:19:45;5.35;;;3.20;;
70073;SDS011;57445;51.058;3.698;2022-09-30T13:25:19;57.50;;;5.93;;
70073;SDS011;57445;51.058;3.698;2022-09-30T13:27:49;5.25;;;2.63;;
70073;SDS011;57445;51.058;3.698;2022-09-30T13:30:36;9.75;;;3.22;;
70073;SDS011;57445;51.058;3.698;2022-09-30T13:33:27;26.73;;;4.63;;
70073;SDS011;57445;51.058;3.698;2022-09-30T13:36:18;8.48;;;3.00;;
70073;SDS011;57445;51.058;3.698;2022-09-30T13:39:06;5.15;;;2.60;;
70073;SDS011;57445;51.058;3.698;2022-09-30T13:41:47;11.45;;;2.72;;
70073;SDS011;57445;51.058;3.698;2022-09-30T13:44:33;7.63;;;2.47;;
70073;SDS011;57445;51.058;3.698;2022-09-30T13:47:09;13.35;;;2.67;;
70073;SDS011;57445;51.058;3.698;2022-09-30T13:49:45;5.53;;;2.50;;
70073;SDS011;57445;51.058;3.698;2022-09-30T13:52:19;5.45;;;2.40;;
70073;SDS011;57445;51.058;3.698;2022-09-30T13:54:52;4.90;;;2.20;;
70073;SDS011;57445;51.058;3.698;2022-09-30T13:57:24;43.05;;;5.32;;
70073;SDS011;57445;51.058;3.698;2022-09-30T14:00:02;5.70;;;2.20;;
70073;SDS011;57445;51.058;3.698;2022-09-30T14:02:40;7.75;;;2.10;;
70073;SDS011;57445;51.058;3.698;2022-09-30T14:05:32;3.00;;;1.63;;
70073;SDS011;57445;51.058;3.698;2022-09-30T14:11:10;7.53;;;2.42;;
70073;SDS011;57445;51.058;3.698;2022-09-30T14:13:50;9.20;;;2.60;;
70073;SDS011;57445;51.058;3.698;2022-09-30T14:16:38;7.75;;;2.13;;
70073;SDS011;57445;51.058;3.698;2022-09-30T14:22:05;10.40;;;2.72;;
70073;SDS011;57445;51.058;3.698;2022-09-30T14:24:35;7.38;;;2.50;;
70073;SDS011;57445;51.058;3.698;2022-09-30T14:27:18;4.47;;;2.40;;
70073;SDS011;57445;51.058;3.698;2022-09-30T14:30:00;5.93;;;2.50;;
70073;SDS011;57445;51.058;3.698;2022-09-30T14:32:35;5.45;;;2.50;;
70073;SDS011;57445;51.058;3.698;2022-09-30T14:35:10;6.75;;;2.70;;
70073;SDS011;57445;51.058;3.698;2022-09-30T14:37:44;6.68;;;2.28;;
70073;SDS011;57445;51.058;3.698;2022-09-30T14:40:15;3.65;;;2.00;;
70073;SDS011;57445;51.058;3.698;2022-09-30T14:42:45;20.10;;;3.63;;
70073;SDS011;57445;51.058;3.698;2022-09-30T14:45:19;6.60;;;2.63;;
70073;SDS011;57445;51.058;3.698;2022-09-30T14:47:58;6.38;;;2.65;;
70073;SDS011;57445;51.058;3.698;2022-09-30T14:50:34;6.35;;;2.50;;
70073;SDS011;57445;51.058;3.698;2022-09-30T14:53:21;4.90;;;2.20;;
70073;SDS011;57445;51.058;3.698;2022-09-30T14:56:15;6.45;;;2.30;;
70073;SDS011;57445;51.058;3.698;2022-09-30T14:58:45;3.88;;;2.10;;
70073;SDS011;57445;51.058;3.698;2022-09-30T15:01:17;4.82;;;2.00;;
70073;SDS011;57445;51.058;3.698;2022-09-30T15:03:50;4.78;;;2.13;;
70073;SDS011;57445;51.058;3.698;2022-09-30T15:06:21;4.68;;;1.90;;
70073;SDS011;57445;51.058;3.698;2022-09-30T15:08:52;8.75;;;2.45;;
70073;SDS011;57445;51.058;3.698;2022-09-30T15:11:27;7.90;;;2.25;;
70073;SDS011;57445;51.058;3.698;2022-09-30T15:14:02;4.25;;;1.98;;
70073;SDS011;57445;51.058;3.698;2022-09-30T15:16:33;4.47;;;1.98;;
70073;SDS011;57445;51.058;3.698;2022-09-30T15:19:02;7.10;;;2.00;;
70073;SDS011;57445;51.058;3.698;2022-09-30T15:21:42;7.72;;;2.33;;
70073;SDS011;57445;51.058;3.698;2022-09-30T15:24:15;4.88;;;2.17;;
70073;SDS011;57445;51.058;3.698;2022-09-30T15:26:48;12.50;;;2.67;;
70073;SDS011;57445;51.058;3.698;2022-09-30T15:29:16;5.22;;;2.00;;
70073;SDS011;57445;51.058;3.698;2022-09-30T15:31:45;6.85;;;2.08;;
70073;SDS011;57445;51.058;3.698;2022-09-30T15:34:17;6.93;;;1.70;;
70073;SDS011;57445;51.058;3.698;2022-09-30T15:36:55;2.95;;;1.65;;
70073;SDS011;57445;51.058;3.698;2022-09-30T15:39:25;7.82;;;1.88;;